Sukran S — TCKB — position and weather

sailwx.info

Track history (hours):
 
Tides and Currents Weather Stations Pressure Air Temp Water Temp Dewpoint Dewpoint Depression Visibility Wind Speed Wind Dir Waves Ship Positions

Sukran S

Last reported at 2015-Mar-29 00:18 UTC. Time now 2015-Mar-30 12:59 UTC.
Position N 41°09' E 029°04'.

Length 108 m; draft 4.2 m.

Type: Ship. MMSI: 271000056.

Date/timePositionNaut miles runAvg speedWind from/ knotsBaromVisibWave heightAir tempDewpointWater temp
2015-Mar-29 00:18N 41°09' E 029°04'17 3.6
2015-Mar-28 19:32N 40°53' E 029°11'0 0.1
2015-Mar-28 18:21N 40°52' E 029°11'0 0.0
2015-Mar-28 17:33N 40°52' E 029°11'0 0.0
2015-Mar-28 16:20N 40°53' E 029°11'0 0.0
2015-Mar-28 15:19N 40°53' E 029°11'0 0.0
2015-Mar-28 14:20N 40°52' E 029°11'0 0.0
2015-Mar-28 13:31N 40°52' E 029°11'0 0.0
2015-Mar-28 12:21N 40°52' E 029°11'0 0.0
2015-Mar-28 11:16N 40°52' E 029°11'0 0.1
2015-Mar-28 10:22N 40°53' E 029°11'0 0.1
2015-Mar-28 09:17N 40°52' E 029°11'0 0.0
2015-Mar-28 08:22N 40°52' E 029°11'0 0.0
2015-Mar-28 07:25N 40°52' E 029°11'0 0.0
2015-Mar-28 06:16N 40°52' E 029°11'0 0.0
2015-Mar-28 05:33N 40°52' E 029°11'0 0.1
2015-Mar-28 04:12N 40°52' E 029°11'0 0.0
2015-Mar-28 03:33N 40°52' E 029°11'0 0.0
2015-Mar-28 02:21N 40°53' E 029°11'0 0.1
2015-Mar-28 01:19N 40°53' E 029°11'0 0.0
2015-Mar-28 00:26N 40°53' E 029°11'0 0.0
2015-Mar-27 23:29N 40°53' E 029°11'0 0.0
2015-Mar-27 22:21N 40°52' E 029°11'0 0.1
2015-Mar-27 21:32N 40°52' E 029°11'0 0.0
2015-Mar-27 20:31N 40°52' E 029°11'1 0.5
2015-Mar-27 19:33N 40°52' E 029°11'9 8.9
2015-Mar-27 18:33N 40°45' E 029°19'1110.4
2015-Mar-27 17:27N 40°45' E 029°34'2 1.8
2015-Mar-27 16:29N 40°47' E 029°36'0 0.0
2015-Mar-27 14:26N 40°47' E 029°36'0 0.0
2015-Mar-25 21:06N 40°47' E 029°36'0 0.0
2015-Mar-25 20:17N 40°47' E 029°36'0 0.0
2015-Mar-25 19:28N 40°47' E 029°36'0 0.0
2015-Mar-25 18:21N 40°47' E 029°36'0 0.0
2015-Mar-25 17:32N 40°47' E 029°36'0 0.0
2015-Mar-25 15:26N 40°47' E 029°36'0 0.0
2015-Mar-25 12:17N 40°47' E 029°36'2 3.3
2015-Mar-25 11:31N 40°46' E 029°33'5 4.4
2015-Mar-25 10:21N 40°46' E 029°26'0 0.0
2015-Mar-25 09:29N 40°46' E 029°26'0 0.0
2015-Mar-25 05:15N 40°46' E 029°26'0 0.0
2015-Mar-25 04:20N 40°46' E 029°26'0 0.0
2015-Mar-25 03:31N 40°46' E 029°26'0 0.0
2015-Mar-25 02:15N 40°46' E 029°26'0 0.0
2015-Mar-25 01:32N 40°46' E 029°26'0 0.0
2015-Mar-25 00:13N 40°46' E 029°26'0 0.0
2015-Mar-24 22:28N 40°46' E 029°26'0 0.0
2015-Mar-24 21:33N 40°46' E 029°26'0 0.0
2015-Mar-24 16:30N 40°46' E 029°26'0 0.0
2015-Mar-24 15:33N 40°46' E 029°26'0 0.0
2015-Mar-24 13:16N 40°46' E 029°26'0 0.0
2015-Mar-24 12:23N 40°46' E 029°26'0 0.0
2015-Mar-24 06:32N 40°46' E 029°26'0 0.0
2015-Mar-24 05:32N 40°46' E 029°26'0 0.0
2015-Mar-24 04:22N 40°46' E 029°26'0 0.0
2015-Mar-24 03:28N 40°46' E 029°26'0 0.0
2015-Mar-24 01:19N 40°46' E 029°26'0 0.0
2015-Mar-23 23:32N 40°46' E 029°26'0 0.0
2015-Mar-23 22:31N 40°46' E 029°26'0 0.0
2015-Mar-23 19:19N 40°46' E 029°26'0 0.0
2015-Mar-23 18:15N 40°46' E 029°26'0 0.0
2015-Mar-23 12:12N 40°46' E 029°26'0 0.0
2015-Mar-23 09:28N 40°46' E 029°26'0 0.0
2015-Mar-23 08:29N 40°46' E 029°26'4 4.2
2015-Mar-23 07:34N 40°45' E 029°22'10 9.8
2015-Mar-23 06:34N 40°46' E 029°09'9 9.4
2015-Mar-23 05:34N 40°51' E 028°58'10 9.4
2015-Mar-23 04:30N 41°01' E 028°60'  
Track history (hours):
 
Tides and Currents Weather Stations Pressure Air Temp Water Temp Dewpoint Dewpoint Depression Visibility Wind Speed Wind Dir Waves Ship Positions

Sukran S

Last reported at 2015-Mar-29 00:18 UTC. Time now 2015-Mar-30 12:59 UTC.
Position N 41°09' E 029°04'.

Length 108 m; draft 4.2 m.

Type: Ship. MMSI: 271000056.

Date/timePositionNaut miles runAvg speedWind from/ knotsBaromVisibWave heightAir tempDewpointWater temp
2015-Mar-29 00:18N 41°09' E 029°04'17 3.6
2015-Mar-28 19:32N 40°53' E 029°11'0 0.1
2015-Mar-28 18:21N 40°52' E 029°11'0 0.0
2015-Mar-28 17:33N 40°52' E 029°11'0 0.0
2015-Mar-28 16:20N 40°53' E 029°11'0 0.0
2015-Mar-28 15:19N 40°53' E 029°11'0 0.0
2015-Mar-28 14:20N 40°52' E 029°11'0 0.0
2015-Mar-28 13:31N 40°52' E 029°11'0 0.0
2015-Mar-28 12:21N 40°52' E 029°11'0 0.0
2015-Mar-28 11:16N 40°52' E 029°11'0 0.1
2015-Mar-28 10:22N 40°53' E 029°11'0 0.1
2015-Mar-28 09:17N 40°52' E 029°11'0 0.0
2015-Mar-28 08:22N 40°52' E 029°11'0 0.0
2015-Mar-28 07:25N 40°52' E 029°11'0 0.0
2015-Mar-28 06:16N 40°52' E 029°11'0 0.0
2015-Mar-28 05:33N 40°52' E 029°11'0 0.1
2015-Mar-28 04:12N 40°52' E 029°11'0 0.0
2015-Mar-28 03:33N 40°52' E 029°11'0 0.0
2015-Mar-28 02:21N 40°53' E 029°11'0 0.1
2015-Mar-28 01:19N 40°53' E 029°11'0 0.0
2015-Mar-28 00:26N 40°53' E 029°11'0 0.0
2015-Mar-27 23:29N 40°53' E 029°11'0 0.0
2015-Mar-27 22:21N 40°52' E 029°11'0 0.1
2015-Mar-27 21:32N 40°52' E 029°11'0 0.0
2015-Mar-27 20:31N 40°52' E 029°11'1 0.5
2015-Mar-27 19:33N 40°52' E 029°11'9 8.9
2015-Mar-27 18:33N 40°45' E 029°19'1110.4
2015-Mar-27 17:27N 40°45' E 029°34'2 1.8
2015-Mar-27 16:29N 40°47' E 029°36'0 0.0
2015-Mar-27 14:26N 40°47' E 029°36'0 0.0
2015-Mar-25 21:06N 40°47' E 029°36'0 0.0
2015-Mar-25 20:17N 40°47' E 029°36'0 0.0
2015-Mar-25 19:28N 40°47' E 029°36'0 0.0
2015-Mar-25 18:21N 40°47' E 029°36'0 0.0
2015-Mar-25 17:32N 40°47' E 029°36'0 0.0
2015-Mar-25 15:26N 40°47' E 029°36'0 0.0
2015-Mar-25 12:17N 40°47' E 029°36'2 3.3
2015-Mar-25 11:31N 40°46' E 029°33'5 4.4
2015-Mar-25 10:21N 40°46' E 029°26'0 0.0
2015-Mar-25 09:29N 40°46' E 029°26'0 0.0
2015-Mar-25 05:15N 40°46' E 029°26'0 0.0
2015-Mar-25 04:20N 40°46' E 029°26'0 0.0
2015-Mar-25 03:31N 40°46' E 029°26'0 0.0
2015-Mar-25 02:15N 40°46' E 029°26'0 0.0
2015-Mar-25 01:32N 40°46' E 029°26'0 0.0
2015-Mar-25 00:13N 40°46' E 029°26'0 0.0
2015-Mar-24 22:28N 40°46' E 029°26'0 0.0
2015-Mar-24 21:33N 40°46' E 029°26'0 0.0
2015-Mar-24 16:30N 40°46' E 029°26'0 0.0
2015-Mar-24 15:33N 40°46' E 029°26'0 0.0
2015-Mar-24 13:16N 40°46' E 029°26'0 0.0
2015-Mar-24 12:23N 40°46' E 029°26'0 0.0
2015-Mar-24 06:32N 40°46' E 029°26'0 0.0
2015-Mar-24 05:32N 40°46' E 029°26'0 0.0
2015-Mar-24 04:22N 40°46' E 029°26'0 0.0
2015-Mar-24 03:28N 40°46' E 029°26'0 0.0
2015-Mar-24 01:19N 40°46' E 029°26'0 0.0
2015-Mar-23 23:32N 40°46' E 029°26'0 0.0
2015-Mar-23 22:31N 40°46' E 029°26'0 0.0
2015-Mar-23 19:19N 40°46' E 029°26'0 0.0
2015-Mar-23 18:15N 40°46' E 029°26'0 0.0
2015-Mar-23 12:12N 40°46' E 029°26'0 0.0
2015-Mar-23 09:28N 40°46' E 029°26'0 0.0
2015-Mar-23 08:29N 40°46' E 029°26'4 4.2
2015-Mar-23 07:34N 40°45' E 029°22'10 9.8
2015-Mar-23 06:34N 40°46' E 029°09'9 9.4
2015-Mar-23 05:34N 40°51' E 028°58'10 9.4
2015-Mar-23 04:30N 41°01' E 028°60'  

Dump ship's entire track history